Terminal Aerodrome Forecast
Issued by NWS

Home | Current Version | Previous Version | Text Only | Print | Product List | Glossary On
Versions: 1 2 3 4 5 6 7 8 9 10 11 12 13 14
000
FTUS44 KEPZ 030500
TAFDMN
TAF
KDMN 030520Z 0306/0406 25008KT P6SM SCT040 BKN060 OVC200
     FM031300 25009KT P6SM BKN040 BKN070
     FM032100 25016G26KT P6SM BKN050
     FM040200 26010KT P6SM FEW070=

USA.gov is the U.S. government's official web portal to all federal, state and local government web resources and services.